Time;durP1;ratioP1;P1;durP2;ratioP2;P2;SDS_P1;SDS_P2;PMS_P1;PMS_P2;Temp;Humidity;BMP_temperature;BMP_pressure;BME280_temperature;BME280_humidity;BME280_pressure;Samples;Min_cycle;Max_cycle;Signal;HPM_P1;HPM_P2
2023/03/17 00:00:11;;;;;;;4.88;1.70;;;;;;;19.25;38.64;100740.41;5020951;28;21195;-70
2023/03/17 00:02:36;;;;;;;8.15;1.75;;;;;;;19.24;38.69;100745.84;5022565;28;20030;-71
2023/03/17 00:05:16;;;;;;;4.40;1.60;;;;;;;19.20;38.69;100747.88;5040347;28;20398;-71
2023/03/17 00:07:41;;;;;;;4.60;2.00;;;;;;;19.21;38.45;100754.84;5033252;28;20068;-70
2023/03/17 00:10:16;;;;;;;4.18;1.88;;;;;;;19.21;38.46;100745.09;5037279;28;20359;-71
2023/03/17 00:12:42;;;;;;;3.80;1.60;;;;;;;19.21;38.56;100753.03;5028770;28;20040;-70
2023/03/17 00:15:09;;;;;;;4.40;1.60;;;;;;;19.17;38.54;100746.38;5040433;28;20184;-70
2023/03/17 00:17:35;;;;;;;4.50;1.80;;;;;;;19.16;38.54;100744.69;5036659;28;20500;-70
2023/03/17 00:20:01;;;;;;;4.03;1.90;;;;;;;19.15;38.23;100736.91;5032297;28;20581;-70
2023/03/17 00:22:26;;;;;;;3.72;1.70;;;;;;;19.16;38.42;100725.38;5040547;28;20069;-69
2023/03/17 00:24:51;;;;;;;6.85;1.80;;;;;;;19.14;38.74;100714.94;5041660;28;20399;-68
2023/03/17 00:27:16;;;;;;;4.57;1.50;;;;;;;19.14;38.35;100714.94;5039567;28;20400;-71
2023/03/17 00:29:42;;;;;;;4.13;1.60;;;;;;;19.13;38.36;100707.97;5030743;28;20057;-72
2023/03/17 00:32:17;;;;;;;3.50;1.50;;;;;;;19.12;38.50;100705.47;5041239;28;20044;-73
2023/03/17 00:34:43;;;;;;;4.40;1.50;;;;;;;19.12;38.21;100702.81;5036802;28;20705;-70
2023/03/17 00:37:12;;;;;;;4.15;1.73;;;;;;;19.08;38.20;100709.34;5043638;28;20918;-69
2023/03/17 00:39:38;;;;;;;4.55;1.70;;;;;;;19.11;38.30;100711.72;5035964;28;20028;-71
2023/03/17 00:42:05;;;;;;;5.90;2.00;;;;;;;19.09;38.33;100722.44;5038457;28;20091;-69
2023/03/17 00:44:31;;;;;;;4.10;1.70;;;;;;;19.08;38.25;100717.28;5036729;28;20408;-70
2023/03/17 00:46:57;;;;;;;4.35;1.70;;;;;;;19.08;38.13;100706.72;5038315;28;20125;-71
2023/03/17 00:49:24;;;;;;;3.90;1.65;;;;;;;19.05;38.16;100701.69;5029981;28;20128;-73
2023/03/17 00:51:50;;;;;;;3.53;1.45;;;;;;;19.03;38.29;100700.00;5028526;28;20033;-69
2023/03/17 00:54:17;;;;;;;4.57;1.90;;;;;;;19.04;38.15;100703.47;5030074;28;20091;-70
2023/03/17 00:56:43;;;;;;;5.25;1.60;;;;;;;19.03;38.13;100700.00;5024458;28;20041;-72
2023/03/17 00:59:36;;;;;;;5.78;1.70;;;;;;;19.03;38.16;100699.19;5031903;28;20029;-70
2023/03/17 01:02:01;;;;;;;4.03;1.80;;;;;;;19.01;37.98;100699.31;5026705;28;20045;-71
2023/03/17 01:04:26;;;;;;;4.20;2.28;;;;;;;18.99;38.05;100698.63;5033574;28;20057;-70
2023/03/17 01:06:52;;;;;;;3.97;1.85;;;;;;;19.00;37.96;100700.28;5023835;28;20112;-69
2023/03/17 01:09:22;;;;;;;4.88;1.90;;;;;;;18.99;38.06;100703.91;5023493;28;20112;-71
2023/03/17 01:11:48;;;;;;;4.45;1.70;;;;;;;18.98;38.05;100698.75;5028084;28;20064;-71
2023/03/17 01:14:14;;;;;;;3.92;1.60;;;;;;;18.98;38.12;100701.41;5037329;28;20075;-70
2023/03/17 01:16:39;;;;;;;3.70;1.60;;;;;;;18.95;37.87;100697.22;5029348;28;20151;-69
2023/03/17 01:19:05;;;;;;;4.45;1.70;;;;;;;18.93;37.93;100688.59;5031498;28;20049;-69
2023/03/17 01:21:30;;;;;;;3.20;1.42;;;;;;;18.93;38.29;100687.75;5025301;28;20041;-73
2023/03/17 01:23:55;;;;;;;3.80;1.83;;;;;;;18.94;38.08;100690.25;5033739;28;20382;-72
2023/03/17 01:26:21;;;;;;;4.22;1.80;;;;;;;18.93;37.95;100685.09;5024266;28;20876;-71
2023/03/17 01:28:46;;;;;;;6.43;2.00;;;;;;;18.90;37.71;100677.44;5021614;28;20156;-71
2023/03/17 01:31:12;;;;;;;5.15;1.90;;;;;;;18.91;37.86;100679.94;5028026;28;20060;-73
2023/03/17 01:33:37;;;;;;;5.97;2.05;;;;;;;18.91;37.81;100685.22;5037364;28;20036;-69
2023/03/17 01:36:03;;;;;;;4.95;1.88;;;;;;;18.91;37.61;100684.41;5026681;28;20601;-71
2023/03/17 01:38:28;;;;;;;4.00;1.60;;;;;;;18.89;37.80;100675.78;5032394;28;20056;-72
2023/03/17 01:40:53;;;;;;;4.05;1.90;;;;;;;18.88;37.97;100674.94;5024558;28;20036;-70
2023/03/17 01:43:28;;;;;;;3.80;1.77;;;;;;;18.88;37.84;100672.28;5034905;28;20055;-70
2023/03/17 01:46:26;;;;;;;3.42;1.67;;;;;;;18.88;37.80;100682.84;5027474;28;20037;-68
2023/03/17 01:49:11;;;;;;;5.03;1.65;;;;;;;18.88;37.70;100672.28;5028575;28;20041;-69
2023/03/17 01:51:54;;;;;;;3.33;1.65;;;;;;;18.83;37.64;100672.69;5040773;28;20037;-70
2023/03/17 01:54:34;;;;;;;4.93;1.95;;;;;;;18.85;37.55;100665.50;5040705;28;20036;-70
2023/03/17 01:57:08;;;;;;;5.20;1.95;;;;;;;18.81;37.71;100658.78;5032258;28;20033;-72
2023/03/17 01:59:38;;;;;;;4.70;1.80;;;;;;;18.82;37.52;100663.09;5028970;28;20029;-72
2023/03/17 02:02:07;;;;;;;5.15;1.80;;;;;;;18.81;37.57;100656.13;5032255;28;20077;-73
2023/03/17 02:04:34;;;;;;;5.15;1.67;;;;;;;18.80;37.61;100650.97;5028638;28;20099;-71
2023/03/17 02:07:02;;;;;;;5.15;1.63;;;;;;;18.80;37.50;100648.34;5032251;28;20120;-69
2023/03/17 02:09:28;;;;;;;3.67;1.65;;;;;;;18.77;37.74;100638.91;5037063;28;20040;-72
2023/03/17 02:11:54;;;;;;;4.95;1.88;;;;;;;18.80;37.42;100645.69;5030914;28;20247;-68
2023/03/17 02:14:20;;;;;;;4.68;1.95;;;;;;;18.77;37.20;100640.69;5033011;28;20359;-72
2023/03/17 02:16:45;;;;;;;5.45;1.90;;;;;;;18.77;37.42;100636.25;5029241;28;20048;-71
2023/03/17 02:19:11;;;;;;;4.30;2.10;;;;;;;18.75;37.50;100646.09;5037852;28;20044;-72
2023/03/17 02:21:44;;;;;;;4.93;1.80;;;;;;;18.76;37.38;100642.50;5024263;28;20041;-71
2023/03/17 02:24:23;;;;;;;4.43;1.80;;;;;;;18.77;37.43;100648.59;5032547;28;20040;-69
2023/03/17 02:26:52;;;;;;;4.00;1.70;;;;;;;18.70;37.55;100626.38;5026599;28;20033;-71
2023/03/17 02:29:20;;;;;;;4.40;1.90;;;;;;;18.73;37.28;100632.22;5031141;28;20099;-70
2023/03/17 02:31:46;;;;;;;5.68;1.70;;;;;;;18.75;37.26;100629.44;5028308;28;20112;-70
2023/03/17 02:34:11;;;;;;;4.38;1.80;;;;;;;18.67;37.19;100617.75;5036213;28;20431;-70
2023/03/17 02:36:36;;;;;;;5.13;1.73;;;;;;;18.74;37.31;100628.59;5029668;28;20033;-73
2023/03/17 02:39:03;;;;;;;4.78;2.20;;;;;;;18.72;37.10;100619.97;5030128;28;20053;-71
2023/03/17 02:41:28;;;;;;;4.32;2.10;;;;;;;18.70;37.25;100606.06;5040359;28;20127;-70
2023/03/17 02:43:54;;;;;;;5.40;1.92;;;;;;;18.71;37.19;100615.69;5028707;28;20605;-70
2023/03/17 02:46:20;;;;;;;4.32;2.15;;;;;;;18.70;37.29;100611.34;5038759;28;20045;-69
2023/03/17 02:48:45;;;;;;;4.63;1.83;;;;;;;18.72;37.43;100611.22;5039806;28;20409;-70
2023/03/17 02:51:11;;;;;;;5.32;2.03;;;;;;;18.66;37.17;100608.16;5034567;28;20044;-70
2023/03/17 02:53:36;;;;;;;4.47;1.88;;;;;;;18.65;37.20;100601.19;5029127;28;21979;-71
2023/03/17 02:56:02;;;;;;;4.72;1.90;;;;;;;18.65;37.23;100609.13;5024669;28;20490;-70
2023/03/17 02:58:27;;;;;;;4.53;1.70;;;;;;;18.67;37.20;100612.47;5027938;28;20088;-72
2023/03/17 03:00:53;;;;;;;5.05;2.30;;;;;;;18.66;37.21;100609.97;5026813;28;20528;-69
2023/03/17 03:03:18;;;;;;;4.80;1.92;;;;;;;18.66;37.19;100615.25;5025678;28;20037;-72
2023/03/17 03:05:44;;;;;;;4.10;1.77;;;;;;;18.63;37.41;100613.69;5026264;28;20079;-71
2023/03/17 03:08:10;;;;;;;5.05;1.95;;;;;;;18.64;36.94;100611.88;5024953;28;20508;-69
2023/03/17 03:10:35;;;;;;;4.70;1.80;;;;;;;18.64;37.02;100614.53;5011629;28;20401;-69
2023/03/17 03:13:01;;;;;;;5.68;2.05;;;;;;;18.63;36.98;100605.78;5033193;28;20037;-70
2023/03/17 03:15:26;;;;;;;4.45;1.70;;;;;;;18.62;36.82;100601.47;5029308;28;20059;-70
2023/03/17 03:17:51;;;;;;;4.25;1.90;;;;;;;18.61;37.29;100598.94;5024329;28;20513;-70
2023/03/17 03:20:17;;;;;;;5.05;1.77;;;;;;;18.62;37.38;100611.19;5030338;28;20048;-69
2023/03/17 03:22:42;;;;;;;6.00;2.15;;;;;;;18.62;37.18;100622.56;5021168;28;20056;-69
2023/03/17 03:25:07;;;;;;;4.60;1.90;;;;;;;18.63;37.08;100626.06;5027744;28;20037;-70
2023/03/17 03:27:33;;;;;;;4.90;1.90;;;;;;;18.61;37.29;100620.94;5030816;28;20036;-71
2023/03/17 03:29:59;;;;;;;5.03;1.77;;;;;;;18.61;37.09;100618.28;5034883;28;20037;-71
2023/03/17 03:32:25;;;;;;;5.28;1.73;;;;;;;18.62;37.26;100614.66;5022973;28;20043;-72
2023/03/17 03:34:50;;;;;;;5.78;1.60;;;;;;;18.59;37.35;100604.38;5029680;28;20034;-72
2023/03/17 03:37:16;;;;;;;3.65;1.73;;;;;;;18.61;37.12;100622.72;5027630;28;20033;-70
2023/03/17 03:39:41;;;;;;;3.65;1.60;;;;;;;18.59;37.24;100627.28;5034121;28;20091;-70
2023/03/17 03:42:06;;;;;;;4.32;1.60;;;;;;;18.59;37.37;100633.41;5038253;28;20036;-68
2023/03/17 03:44:32;;;;;;;4.68;1.88;;;;;;;18.61;37.09;100630.63;5032164;28;20037;-70
2023/03/17 03:46:57;;;;;;;4.72;1.80;;;;;;;18.60;37.27;100637.72;5042634;28;20119;-71
2023/03/17 03:49:23;;;;;;;4.57;1.75;;;;;;;18.60;37.21;100636.88;5027179;28;20474;-72
2023/03/17 03:51:48;;;;;;;4.03;1.73;;;;;;;18.59;37.16;100628.13;5037469;28;20116;-70
2023/03/17 03:54:14;;;;;;;3.60;1.67;;;;;;;18.57;36.97;100623.97;5034919;28;20025;-70
2023/03/17 03:56:39;;;;;;;3.88;1.60;;;;;;;18.58;37.02;100639.66;5034656;28;20048;-71
2023/03/17 03:59:05;;;;;;;6.78;2.00;;;;;;;18.58;37.07;100641.44;5032278;28;20037;-69
2023/03/17 04:01:30;;;;;;;5.18;1.88;;;;;;;18.56;36.50;100640.75;5036675;28;20539;-71
2023/03/17 04:03:55;;;;;;;5.05;1.63;;;;;;;18.58;36.82;100654.63;5043869;28;20033;-70
2023/03/17 04:06:20;;;;;;;4.38;1.70;;;;;;;18.55;36.98;100646.97;5034220;28;20037;-69
2023/03/17 04:08:46;;;;;;;5.05;2.00;;;;;;;18.56;36.87;100640.75;5034229;28;20080;-71
2023/03/17 04:11:12;;;;;;;5.50;1.90;;;;;;;18.56;36.88;100644.22;5032105;28;20037;-74
2023/03/17 04:13:37;;;;;;;4.30;2.15;;;;;;;18.55;37.74;100633.78;5027223;28;20041;-70
2023/03/17 04:16:03;;;;;;;4.63;1.83;;;;;;;18.56;39.26;100643.38;5035882;28;20128;-71
2023/03/17 04:18:29;;;;;;;4.25;1.73;;;;;;;18.53;39.71;100633.91;5041387;28;20114;-71
2023/03/17 04:20:55;;;;;;;3.85;1.70;;;;;;;18.52;39.91;100641.97;5034900;28;20033;-70
2023/03/17 04:23:20;;;;;;;5.57;1.73;;;;;;;18.53;40.24;100647.13;5035273;28;20035;-71
2023/03/17 04:25:46;;;;;;;4.72;1.50;;;;;;;18.53;40.45;100646.28;5033530;28;20035;-69
2023/03/17 04:28:11;;;;;;;6.05;1.90;;;;;;;18.53;40.62;100651.56;5037638;28;20055;-71
2023/03/17 04:30:37;;;;;;;4.18;1.85;;;;;;;18.52;40.68;100644.59;5029096;28;20025;-69
2023/03/17 04:33:02;;;;;;;4.80;1.77;;;;;;;18.50;40.76;100642.13;5038198;28;20072;-72
2023/03/17 04:35:28;;;;;;;5.72;2.03;;;;;;;18.48;41.03;100644.91;5043106;28;20036;-70
2023/03/17 04:37:53;;;;;;;5.35;1.80;;;;;;;18.47;40.88;100645.03;5038787;28;20421;-70
2023/03/17 04:40:19;;;;;;;4.85;1.65;;;;;;;18.46;40.96;100641.53;5038768;28;20029;-71
2023/03/17 04:42:44;;;;;;;4.57;1.80;;;;;;;18.47;41.06;100653.78;5035147;28;20064;-72
2023/03/17 04:45:11;;;;;;;4.45;1.85;;;;;;;18.45;41.11;100647.81;5035493;28;21355;-72
2023/03/17 04:47:37;;;;;;;5.05;1.67;;;;;;;18.43;41.27;100648.88;5029969;28;20033;-70
2023/03/17 04:50:03;;;;;;;6.78;2.15;;;;;;;18.44;41.54;100647.94;5033516;28;20037;-72
2023/03/17 04:52:29;;;;;;;4.40;1.70;;;;;;;18.43;41.62;100646.25;5043370;28;20025;-72
2023/03/17 04:54:55;;;;;;;6.20;2.20;;;;;;;18.44;41.68;100645.28;5036825;28;20030;-71
2023/03/17 04:57:21;;;;;;;5.13;1.80;;;;;;;18.43;41.74;100647.06;5035907;28;20124;-69
2023/03/17 04:59:46;;;;;;;5.45;1.95;;;;;;;18.42;41.83;100642.78;5023940;28;20034;-73
2023/03/17 05:02:11;;;;;;;4.53;1.75;;;;;;;18.41;41.84;100635.00;5028672;28;20061;-71
2023/03/17 05:04:37;;;;;;;5.05;2.05;;;;;;;18.41;41.92;100629.72;5036630;28;20095;-70
2023/03/17 05:07:02;;;;;;;5.72;1.85;;;;;;;18.41;42.29;100635.81;5033133;28;20041;-71
2023/03/17 05:09:28;;;;;;;6.10;2.08;;;;;;;18.38;42.16;100619.44;5026275;28;20461;-69
2023/03/17 05:11:54;;;;;;;6.82;2.10;;;;;;;18.38;42.22;100620.25;5028928;28;20029;-69
2023/03/17 05:14:19;;;;;;;4.68;1.77;;;;;;;18.40;42.28;100612.22;5028966;28;20091;-71
2023/03/17 05:16:48;;;;;;;6.55;1.95;;;;;;;18.40;42.17;100614.84;5029050;28;20534;-70
2023/03/17 05:19:14;;;;;;;5.80;1.73;;;;;;;18.37;42.35;100621.22;5034244;28;20072;-71
2023/03/17 05:21:40;;;;;;;4.18;1.48;;;;;;;18.39;42.52;100631.63;5023428;28;20037;-70
2023/03/17 05:24:05;;;;;;;4.88;1.65;;;;;;;18.37;42.39;100625.66;5028888;28;20438;-72
2023/03/17 05:26:31;;;;;;;6.63;2.00;;;;;;;18.35;42.30;100631.06;5039010;28;20047;-71
2023/03/17 05:28:57;;;;;;;7.70;2.15;;;;;;;18.37;42.35;100644.97;5040127;28;20037;-70
2023/03/17 05:31:22;;;;;;;6.05;1.95;;;;;;;18.34;42.51;100639.97;5031347;28;20046;-69
2023/03/17 05:33:48;;;;;;;6.18;2.35;;;;;;;18.34;42.55;100641.75;5029993;28;20030;-70
2023/03/17 05:36:13;;;;;;;6.82;1.80;;;;;;;18.36;42.55;100643.31;5036827;28;20124;-69
2023/03/17 05:38:39;;;;;;;4.40;1.70;;;;;;;18.31;42.53;100640.22;5042212;28;20043;-70
2023/03/17 05:41:04;;;;;;;6.20;2.00;;;;;;;18.32;42.63;100644.53;5034016;28;20034;-69
2023/03/17 05:43:30;;;;;;;7.25;2.35;;;;;;;18.34;42.61;100641.75;5035917;28;20041;-69
2023/03/17 05:45:55;;;;;;;8.82;1.98;;;;;;;18.31;42.88;100638.41;5030519;28;20125;-70
2023/03/17 05:48:21;;;;;;;6.20;2.20;;;;;;;18.29;42.65;100624.53;5027226;28;20063;-71
2023/03/17 05:50:46;;;;;;;5.18;1.85;;;;;;;18.30;43.01;100626.19;5027621;28;20047;-71
2023/03/17 05:53:12;;;;;;;6.18;2.10;;;;;;;18.32;43.04;100636.59;5042293;28;20041;-70
2023/03/17 05:55:37;;;;;;;5.32;1.98;;;;;;;18.31;42.90;100642.88;5032909;28;20032;-71
2023/03/17 05:58:04;;;;;;;5.43;2.03;;;;;;;18.31;42.86;100641.06;5031870;28;20045;-69
2023/03/17 06:00:30;;;;;;;5.20;2.03;;;;;;;18.29;43.09;100632.44;5037635;28;20028;-72
2023/03/17 06:02:55;;;;;;;5.93;1.77;;;;;;;18.27;42.87;100623.81;5026364;28;20462;-72
2023/03/17 06:05:21;;;;;;;5.22;1.92;;;;;;;18.29;42.46;100629.81;5037807;28;20091;-70
2023/03/17 06:07:46;;;;;;;3.92;1.70;;;;;;;18.29;42.30;100626.31;5041738;28;20028;-72
2023/03/17 06:10:12;;;;;;;5.85;2.20;;;;;;;18.29;41.81;100632.44;5040715;28;20032;-71
2023/03/17 06:12:38;;;;;;;4.38;1.77;;;;;;;18.30;41.65;100631.47;5038343;28;20033;-71
2023/03/17 06:15:04;;;;;;;6.18;2.00;;;;;;;18.32;41.64;100639.25;5034504;28;20528;-69
2023/03/17 06:17:29;;;;;;;5.90;1.83;;;;;;;18.35;41.75;100628.44;5031176;28;20044;-71
2023/03/17 06:19:55;;;;;;;5.35;1.75;;;;;;;18.34;41.92;100637.34;5031297;28;20243;-70
2023/03/17 06:22:20;;;;;;;6.28;1.73;;;;;;;18.40;41.68;100641.22;5026321;28;20037;-69
2023/03/17 06:24:46;;;;;;;6.50;1.80;;;;;;;18.41;41.88;100643.75;5027791;28;20121;-70
2023/03/17 06:27:13;;;;;;;5.90;2.00;;;;;;;18.44;42.07;100645.28;5037604;28;20394;-69
2023/03/17 06:29:38;;;;;;;7.18;1.90;;;;;;;18.46;41.96;100646.00;5025797;28;20063;-69
2023/03/17 06:32:04;;;;;;;5.43;1.70;;;;;;;18.43;41.84;100633.88;5023097;28;20466;-71
2023/03/17 06:34:30;;;;;;;5.55;1.90;;;;;;;18.55;41.88;100646.97;5025527;28;20030;-71
2023/03/17 06:36:55;;;;;;;6.05;2.00;;;;;;;18.56;42.15;100646.03;5028099;28;20037;-69
2023/03/17 06:39:21;;;;;;;7.40;1.70;;;;;;;18.60;41.98;100656.19;5040568;28;20024;-70
2023/03/17 06:41:46;;;;;;;4.97;1.60;;;;;;;18.63;42.04;100640.09;5030873;28;20051;-71
2023/03/17 06:44:12;;;;;;;8.07;1.88;;;;;;;18.64;42.19;100636.50;5029255;28;20142;-70
2023/03/17 06:46:38;;;;;;;5.78;1.77;;;;;;;18.70;41.99;100642.19;5031058;28;20072;-71
2023/03/17 06:49:03;;;;;;;6.15;2.40;;;;;;;18.71;42.04;100633.28;5039597;28;20427;-70
2023/03/17 06:51:31;;;;;;;6.57;1.67;;;;;;;18.72;41.92;100633.16;5039522;28;20095;-71
2023/03/17 06:53:57;;;;;;;6.90;1.92;;;;;;;18.76;41.91;100644.31;5039362;28;20032;-70
2023/03/17 06:56:22;;;;;;;5.22;1.90;;;;;;;18.78;42.05;100642.38;5037345;28;20067;-71
2023/03/17 06:58:48;;;;;;;6.00;1.63;;;;;;;18.77;41.93;100640.69;5032012;28;20071;-69
2023/03/17 07:01:14;;;;;;;5.57;1.67;;;;;;;18.78;41.80;100643.19;5031400;28;20033;-70
2023/03/17 07:03:40;;;;;;;4.65;1.77;;;;;;;18.81;41.90;100655.31;5032502;28;20371;-71
2023/03/17 07:06:06;;;;;;;5.07;1.55;;;;;;;18.80;42.01;100648.34;5030918;28;20033;-72
2023/03/17 07:08:32;;;;;;;6.55;2.33;;;;;;;18.82;42.16;100651.72;5028053;28;20032;-72
2023/03/17 07:10:58;;;;;;;5.05;1.70;;;;;;;18.80;42.18;100641.28;5028885;28;20036;-71
2023/03/17 07:13:24;;;;;;;8.43;2.10;;;;;;;18.83;42.00;100650.72;5033709;28;20041;-71
2023/03/17 07:15:49;;;;;;;5.28;1.90;;;;;;;18.81;42.20;100645.56;5032766;28;20044;-71
2023/03/17 07:18:15;;;;;;;5.10;1.80;;;;;;;18.81;42.18;100642.94;5040431;28;20052;-71
2023/03/17 07:20:41;;;;;;;4.47;1.80;;;;;;;18.82;42.01;100651.72;5038869;28;20384;-71
2023/03/17 07:23:20;;;;;;;4.05;1.52;;;;;;;18.83;42.08;100650.72;5035288;28;20025;-71
2023/03/17 07:25:46;;;;;;;7.60;1.80;;;;;;;18.84;42.16;100645.34;5026676;28;20064;-71
2023/03/17 07:28:11;;;;;;;5.90;2.03;;;;;;;18.84;42.20;100642.69;5043205;28;20033;-72
2023/03/17 07:30:37;;;;;;;5.65;2.25;;;;;;;18.85;42.18;100647.00;5036695;28;20040;-72
2023/03/17 07:33:03;;;;;;;6.20;1.80;;;;;;;18.87;42.26;100638.09;5040329;28;20112;-71
2023/03/17 07:35:29;;;;;;;4.68;1.50;;;;;;;18.88;42.27;100627.41;5029982;28;21121;-70
2023/03/17 07:37:55;;;;;;;5.05;1.80;;;;;;;18.87;42.20;100625.75;5025065;28;20049;-69
2023/03/17 07:40:20;;;;;;;4.90;1.80;;;;;;;18.89;42.10;100628.25;5032098;28;20033;-72
2023/03/17 07:42:46;;;;;;;4.50;1.58;;;;;;;18.88;42.34;100626.59;5040751;28;20029;-72
2023/03/17 07:45:12;;;;;;;5.07;1.63;;;;;;;18.89;42.19;100631.72;5040580;28;20029;-72
2023/03/17 07:47:38;;;;;;;5.18;1.95;;;;;;;18.86;42.42;100626.72;5038969;28;20044;-68
2023/03/17 07:50:04;;;;;;;6.55;1.75;;;;;;;18.88;42.24;100629.22;5040054;28;20041;-69
2023/03/17 07:52:30;;;;;;;4.85;1.98;;;;;;;18.89;42.46;100633.53;5044636;28;20496;-71
2023/03/17 07:54:57;;;;;;;6.53;1.70;;;;;;;18.85;42.46;100633.81;5044654;28;20033;-68
2023/03/17 07:57:22;;;;;;;5.13;1.80;;;;;;;18.89;42.51;100630.91;5029986;28;20148;-70
2023/03/17 07:59:48;;;;;;;4.93;1.63;;;;;;;18.89;42.59;100646.75;5025020;28;20551;-68
2023/03/17 08:02:15;;;;;;;6.00;1.52;;;;;;;18.91;42.91;100655.38;5035797;28;20854;-70
2023/03/17 08:04:41;;;;;;;9.60;1.88;;;;;;;18.87;42.80;100648.66;5038531;28;20141;-73
2023/03/17 08:07:06;;;;;;;6.30;1.77;;;;;;;18.91;43.07;100644.81;5037488;28;20116;-69
2023/03/17 08:09:32;;;;;;;5.28;1.85;;;;;;;18.91;43.21;100642.97;5031583;28;20037;-69
2023/03/17 08:11:57;;;;;;;6.80;1.70;;;;;;;18.89;43.62;100631.72;5037442;28;20994;-70
2023/03/17 08:14:22;;;;;;;7.55;2.22;;;;;;;18.92;43.68;100641.19;5036845;28;20667;-69
2023/03/17 08:16:48;;;;;;;4.72;1.42;;;;;;;18.91;43.94;100639.53;5043009;28;20442;-69
2023/03/17 08:19:13;;;;;;;5.30;1.80;;;;;;;18.93;43.59;100651.63;5034510;28;20068;-70
2023/03/17 08:21:38;;;;;;;3.72;1.40;;;;;;;18.93;43.55;100649.00;5035315;28;20486;-71
2023/03/17 08:24:04;;;;;;;4.55;2.00;;;;;;;18.92;43.55;100644.66;5024208;28;20115;-69
2023/03/17 08:26:31;;;;;;;5.78;1.70;;;;;;;18.93;43.38;100645.50;5030663;28;20064;-71
2023/03/17 08:28:56;;;;;;;4.53;1.60;;;;;;;18.97;43.10;100650.38;5033468;28;20055;-71
2023/03/17 08:31:22;;;;;;;4.45;1.67;;;;;;;18.95;43.14;100635.66;5035347;28;20060;-69
2023/03/17 08:33:49;;;;;;;6.00;1.58;;;;;;;18.95;43.26;100633.84;5026184;28;20030;-69
2023/03/17 08:36:16;;;;;;;5.28;2.00;;;;;;;18.97;43.37;100641.63;5029718;28;20091;-68
2023/03/17 08:38:42;;;;;;;5.82;1.88;;;;;;;18.97;43.59;100633.69;5041268;28;20028;-70
2023/03/17 08:41:12;;;;;;;5.45;1.75;;;;;;;18.97;43.38;100621.31;5038466;28;20037;-67
2023/03/17 08:43:38;;;;;;;4.28;1.55;;;;;;;19.01;43.37;100614.00;5042032;28;20037;-73
2023/03/17 08:46:16;;;;;;;4.30;1.52;;;;;;;18.98;43.35;100611.63;5040554;28;20037;-72
2023/03/17 08:48:41;;;;;;;3.88;1.63;;;;;;;19.03;43.23;100625.25;5032260;28;20041;-69
2023/03/17 08:51:07;;;;;;;5.13;1.50;;;;;;;19.03;43.12;100630.53;5033739;28;20090;-69
2023/03/17 08:53:33;;;;;;;7.35;1.55;;;;;;;19.02;43.35;100645.50;5027857;28;20098;-68
2023/03/17 08:55:59;;;;;;;4.20;1.45;;;;;;;19.05;43.31;100640.94;5034287;28;20072;-69
2023/03/17 08:58:25;;;;;;;5.07;1.67;;;;;;;19.05;43.38;100638.31;5029685;28;20595;-69
2023/03/17 09:00:51;;;;;;;5.80;1.63;;;;;;;19.09;42.96;100627.34;5026773;28;20548;-68
2023/03/17 09:03:16;;;;;;;5.13;2.33;;;;;;;19.12;42.96;100626.22;5027447;28;20752;-71
2023/03/17 09:05:42;;;;;;;9.27;1.83;;;;;;;19.16;42.59;100624.97;5028993;28;20044;-68
2023/03/17 09:08:10;;;;;;;5.38;1.50;;;;;;;19.23;42.39;100636.66;5027791;28;20040;-68
2023/03/17 09:10:36;;;;;;;5.90;2.35;;;;;;;19.29;42.21;100627.38;5035448;28;20517;-69
2023/03/17 09:13:04;;;;;;;5.80;1.65;;;;;;;19.32;42.06;100627.09;5030826;28;20497;-69
2023/03/17 09:15:32;;;;;;;6.22;1.52;;;;;;;19.35;42.10;100624.19;5041525;28;20486;-68
2023/03/17 09:17:57;;;;;;;4.82;1.63;;;;;;;19.43;41.90;100626.13;5023525;28;20036;-69
2023/03/17 09:20:23;;;;;;;4.38;1.58;;;;;;;19.45;42.30;100625.00;5035735;28;20032;-69
2023/03/17 09:22:50;;;;;;;5.00;1.75;;;;;;;19.49;41.92;100633.50;5039929;28;20424;-69
2023/03/17 09:25:16;;;;;;;6.05;1.95;;;;;;;19.50;41.96;100638.66;5029932;28;20033;-70
2023/03/17 09:27:42;;;;;;;6.18;1.50;;;;;;;19.50;41.80;100637.81;5055073;28;20060;-69
2023/03/17 09:30:10;;;;;;;13.90;2.20;;;;;;;19.50;41.73;100635.16;5036976;28;20132;-68
2023/03/17 09:32:36;;;;;;;6.78;1.73;;;;;;;19.50;41.83;100622.81;5038317;28;20041;-67
2023/03/17 09:35:02;;;;;;;7.78;1.80;;;;;;;19.51;41.73;100611.22;5041451;28;20102;-68
2023/03/17 09:37:31;;;;;;;2.85;1.30;;;;;;;19.51;41.59;100607.75;5023889;28;20029;-70
2023/03/17 09:39:57;;;;;;;4.35;1.90;;;;;;;19.51;41.82;100610.41;5034991;28;20037;-70
2023/03/17 09:42:22;;;;;;;4.72;1.27;;;;;;;19.50;41.92;100614.88;5027687;28;20048;-68
2023/03/17 09:44:53;;;;;;;3.90;1.20;;;;;;;19.51;41.84;100616.53;5035704;28;20040;-72
2023/03/17 09:47:24;;;;;;;5.00;1.48;;;;;;;19.52;41.58;100612.91;5030170;28;20317;-69
2023/03/17 09:49:52;;;;;;;5.43;1.60;;;;;;;19.51;41.57;100605.94;5028032;28;20116;-66
2023/03/17 09:52:26;;;;;;;4.35;1.70;;;;;;;19.54;41.36;100610.13;5026342;28;20037;-69
2023/03/17 09:54:52;;;;;;;4.47;1.23;;;;;;;19.56;41.12;100613.47;5029685;28;20035;-67
2023/03/17 09:57:29;;;;;;;7.13;1.70;;;;;;;19.50;41.65;100624.59;5032745;28;20037;-67
2023/03/17 10:00:06;;;;;;;7.32;1.55;;;;;;;19.51;41.17;100637.66;5034052;28;20029;-69
2023/03/17 10:02:36;;;;;;;4.30;1.60;;;;;;;19.52;41.48;100633.22;5025834;28;20076;-69
2023/03/17 10:05:27;;;;;;;6.00;1.40;;;;;;;19.47;41.65;100633.66;5029851;28;20048;-68
2023/03/17 10:08:17;;;;;;;4.95;1.42;;;;;;;19.46;41.54;100636.44;5028162;28;20181;-69
2023/03/17 10:10:56;;;;;;;9.82;1.80;;;;;;;19.43;41.61;100629.59;5026934;28;20029;-70
2023/03/17 10:13:46;;;;;;;4.03;1.23;;;;;;;19.42;41.58;100645.59;5032545;28;20025;-70
2023/03/17 10:16:17;;;;;;;5.10;1.65;;;;;;;19.46;41.54;100671.59;5032594;28;20037;-70
2023/03/17 10:18:52;;;;;;;4.32;1.65;;;;;;;19.40;41.59;100658.94;5029217;28;20057;-70
2023/03/17 10:21:24;;;;;;;4.95;1.73;;;;;;;19.46;41.59;100650.47;5026333;28;20069;-71
2023/03/17 10:23:51;;;;;;;4.45;1.55;;;;;;;19.49;41.52;100671.34;5032987;28;20057;-71
2023/03/17 10:26:30;;;;;;;5.63;1.73;;;;;;;19.46;41.68;100661.03;5026559;28;20095;-69
2023/03/17 10:28:55;;;;;;;3.83;1.50;;;;;;;19.47;41.38;100665.34;5035115;28;20029;-69
2023/03/17 10:31:31;;;;;;;8.80;1.50;;;;;;;19.49;41.49;100659.94;5032184;28;20037;-69
2023/03/17 10:34:12;;;;;;;4.38;1.45;;;;;;;19.48;41.47;100664.38;5034434;28;20033;-71
2023/03/17 10:36:39;;;;;;;4.20;1.40;;;;;;;19.55;41.35;100664.66;5023635;28;20025;-70
2023/03/17 10:39:06;;;;;;;6.13;2.53;;;;;;;19.56;41.27;100659.22;5036524;28;20075;-69
2023/03/17 10:41:37;;;;;;;7.47;1.85;;;;;;;19.56;41.39;100661.03;5031269;28;20025;-68
2023/03/17 10:44:08;;;;;;;4.25;1.70;;;;;;;19.55;41.50;100652.28;5025643;28;20033;-67
2023/03/17 10:46:36;;;;;;;4.10;1.40;;;;;;;19.53;41.43;100642.81;5032207;28;20094;-68
2023/03/17 10:49:08;;;;;;;5.22;1.55;;;;;;;19.52;41.64;100655.19;5040525;28;20036;-68
2023/03/17 10:51:35;;;;;;;3.80;1.55;;;;;;;19.55;41.80;100654.94;5025207;28;20034;-67
2023/03/17 10:54:08;;;;;;;5.95;1.60;;;;;;;19.54;41.72;100649.78;5032898;28;20033;-67
2023/03/17 10:56:41;;;;;;;6.32;1.40;;;;;;;19.54;41.74;100652.44;5030654;28;20045;-68
2023/03/17 10:59:15;;;;;;;4.88;1.40;;;;;;;19.54;41.54;100647.13;5033757;28;20095;-68
2023/03/17 11:01:48;;;;;;;8.38;1.45;;;;;;;19.53;41.74;100640.16;5025572;28;20052;-67
2023/03/17 11:04:35;;;;;;;5.38;1.40;;;;;;;19.56;41.62;100642.53;5028239;28;20535;-67
2023/03/17 11:07:14;;;;;;;3.05;1.23;;;;;;;19.58;41.74;100632.66;5038952;28;20025;-66
2023/03/17 11:09:39;;;;;;;4.78;1.42;;;;;;;19.62;41.63;100638.50;5036472;28;20143;-68
2023/03/17 11:12:25;;;;;;;4.53;1.38;;;;;;;19.58;41.67;100633.50;5023493;28;20497;-68
2023/03/17 11:14:58;;;;;;;3.15;1.50;;;;;;;19.60;41.73;100624.59;5028585;28;20032;-69
2023/03/17 11:17:56;;;;;;;4.75;1.77;;;;;;;19.63;41.56;100624.31;5024207;28;20041;-70
2023/03/17 11:20:22;;;;;;;5.07;1.40;;;;;;;19.68;41.56;100624.75;5024616;28;20490;-70
2023/03/17 11:22:57;;;;;;;3.87;1.50;;;;;;;19.60;41.52;100620.16;5024477;28;20044;-68
2023/03/17 11:25:23;;;;;;;3.35;1.20;;;;;;;19.59;41.52;100615.81;5034863;28;20266;-69